sensor_id;sensor_type;location;lat;lon;timestamp;temperature;humidity
68648;SHT31;55632;51.962;16.116;2023-05-31T00:04:28;10.58;66.41
68648;SHT31;55632;51.962;16.116;2023-05-31T00:09:29;10.48;66.52
68648;SHT31;55632;51.962;16.116;2023-05-31T00:14:29;10.37;66.73
68648;SHT31;55632;51.962;16.116;2023-05-31T00:19:30;10.32;67.07
68648;SHT31;55632;51.962;16.116;2023-05-31T00:24:31;10.20;67.59
68648;SHT31;55632;51.962;16.116;2023-05-31T00:29:32;10.19;68.02
68648;SHT31;55632;51.962;16.116;2023-05-31T00:34:33;10.12;68.46
68648;SHT31;55632;51.962;16.116;2023-05-31T00:39:33;10.09;68.85
68648;SHT31;55632;51.962;16.116;2023-05-31T00:44:35;10.05;69.27
68648;SHT31;55632;51.962;16.116;2023-05-31T00:49:36;10.09;69.77
68648;SHT31;55632;51.962;16.116;2023-05-31T00:54:37;10.16;70.19
68648;SHT31;55632;51.962;16.116;2023-05-31T00:59:37;10.21;70.61
68648;SHT31;55632;51.962;16.116;2023-05-31T01:04:38;10.30;70.80
68648;SHT31;55632;51.962;16.116;2023-05-31T01:09:40;10.33;70.93
68648;SHT31;55632;51.962;16.116;2023-05-31T01:19:53;10.34;71.14
68648;SHT31;55632;51.962;16.116;2023-05-31T01:25:25;10.29;71.69
68648;SHT31;55632;51.962;16.116;2023-05-31T01:30:28;10.34;71.70
68648;SHT31;55632;51.962;16.116;2023-05-31T01:35:30;10.37;71.74
68648;SHT31;55632;51.962;16.116;2023-05-31T01:40:31;10.34;71.81
68648;SHT31;55632;51.962;16.116;2023-05-31T01:45:34;10.30;71.91
68648;SHT31;55632;51.962;16.116;2023-05-31T01:50:38;10.26;72.14
68648;SHT31;55632;51.962;16.116;2023-05-31T01:55:41;10.24;72.32
68648;SHT31;55632;51.962;16.116;2023-05-31T02:00:44;10.23;72.42
68648;SHT31;55632;51.962;16.116;2023-05-31T02:05:59;10.17;72.61
68648;SHT31;55632;51.962;16.116;2023-05-31T02:11:00;10.13;72.67
68648;SHT31;55632;51.962;16.116;2023-05-31T02:16:01;10.06;72.90
68648;SHT31;55632;51.962;16.116;2023-05-31T02:21:04;10.02;73.19
68648;SHT31;55632;51.962;16.116;2023-05-31T02:26:06;10.03;73.29
68648;SHT31;55632;51.962;16.116;2023-05-31T02:31:07;9.95;73.45
68648;SHT31;55632;51.962;16.116;2023-05-31T02:36:09;9.93;73.65
68648;SHT31;55632;51.962;16.116;2023-05-31T02:41:10;9.91;73.78
68648;SHT31;55632;51.962;16.116;2023-05-31T02:46:12;9.81;73.91
68648;SHT31;55632;51.962;16.116;2023-05-31T02:51:13;9.78;73.89
68648;SHT31;55632;51.962;16.116;2023-05-31T02:56:46;9.73;73.46
68648;SHT31;55632;51.962;16.116;2023-05-31T03:01:53;9.68;73.49
68648;SHT31;55632;51.962;16.116;2023-05-31T03:07:11;9.62;73.68
68648;SHT31;55632;51.962;16.116;2023-05-31T03:12:12;9.58;74.23
68648;SHT31;55632;51.962;16.116;2023-05-31T03:17:15;9.57;74.49
68648;SHT31;55632;51.962;16.116;2023-05-31T03:22:16;9.61;74.52
68648;SHT31;55632;51.962;16.116;2023-05-31T03:27:16;9.79;74.45
68648;SHT31;55632;51.962;16.116;2023-05-31T03:32:18;10.33;74.06
68648;SHT31;55632;51.962;16.116;2023-05-31T03:37:19;10.97;73.37
68648;SHT31;55632;51.962;16.116;2023-05-31T03:42:25;11.61;71.71
68648;SHT31;55632;51.962;16.116;2023-05-31T03:47:26;12.16;70.31
68648;SHT31;55632;51.962;16.116;2023-05-31T03:52:30;12.65;68.86
68648;SHT31;55632;51.962;16.116;2023-05-31T03:57:31;13.18;67.75
68648;SHT31;55632;51.962;16.116;2023-05-31T04:02:31;13.72;66.65
68648;SHT31;55632;51.962;16.116;2023-05-31T04:07:32;14.29;65.90
68648;SHT31;55632;51.962;16.116;2023-05-31T04:18:49;15.41;63.55
68648;SHT31;55632;51.962;16.116;2023-05-31T04:23:52;15.82;62.33
68648;SHT31;55632;51.962;16.116;2023-05-31T04:28:53;16.18;61.46
68648;SHT31;55632;51.962;16.116;2023-05-31T04:33:55;16.52;60.44
68648;SHT31;55632;51.962;16.116;2023-05-31T04:39:02;16.73;59.52
68648;SHT31;55632;51.962;16.116;2023-05-31T04:44:07;16.97;58.89
68648;SHT31;55632;51.962;16.116;2023-05-31T04:49:08;17.21;58.10
68648;SHT31;55632;51.962;16.116;2023-05-31T04:54:10;17.39;57.61
68648;SHT31;55632;51.962;16.116;2023-05-31T04:59:11;17.43;57.09
68648;SHT31;55632;51.962;16.116;2023-05-31T05:04:12;17.35;56.87
68648;SHT31;55632;51.962;16.116;2023-05-31T05:09:15;17.31;57.15
68648;SHT31;55632;51.962;16.116;2023-05-31T05:14:16;17.42;57.14
68648;SHT31;55632;51.962;16.116;2023-05-31T05:19:18;17.80;56.77
68648;SHT31;55632;51.962;16.116;2023-05-31T05:24:18;18.13;55.61
68648;SHT31;55632;51.962;16.116;2023-05-31T05:29:21;18.46;55.12
68648;SHT31;55632;51.962;16.116;2023-05-31T05:34:22;18.78;54.28
68648;SHT31;55632;51.962;16.116;2023-05-31T05:39:23;19.15;53.65
68648;SHT31;55632;51.962;16.116;2023-05-31T05:44:24;19.46;52.05
68648;SHT31;55632;51.962;16.116;2023-05-31T05:49:25;19.54;51.01
68648;SHT31;55632;51.962;16.116;2023-05-31T05:54:26;19.66;51.13
68648;SHT31;55632;51.962;16.116;2023-05-31T05:59:28;19.86;50.38
68648;SHT31;55632;51.962;16.116;2023-05-31T06:04:34;19.94;49.93
68648;SHT31;55632;51.962;16.116;2023-05-31T06:09:37;20.04;49.47
68648;SHT31;55632;51.962;16.116;2023-05-31T06:14:40;20.15;49.06
68648;SHT31;55632;51.962;16.116;2023-05-31T06:19:43;20.26;49.27
68648;SHT31;55632;51.962;16.116;2023-05-31T06:24:44;20.36;48.89
68648;SHT31;55632;51.962;16.116;2023-05-31T06:29:47;20.50;48.56
68648;SHT31;55632;51.962;16.116;2023-05-31T06:34:59;20.55;48.13
68648;SHT31;55632;51.962;16.116;2023-05-31T06:40:00;20.60;48.54
68648;SHT31;55632;51.962;16.116;2023-05-31T06:45:01;20.74;48.08
68648;SHT31;55632;51.962;16.116;2023-05-31T06:50:23;20.89;47.76
68648;SHT31;55632;51.962;16.116;2023-05-31T06:55:42;21.07;47.67
68648;SHT31;55632;51.962;16.116;2023-05-31T07:00:45;21.23;47.04
68648;SHT31;55632;51.962;16.116;2023-05-31T07:05:46;21.39;46.83
68648;SHT31;55632;51.962;16.116;2023-05-31T07:10:47;21.54;46.94
68648;SHT31;55632;51.962;16.116;2023-05-31T07:15:48;21.81;46.35
68648;SHT31;55632;51.962;16.116;2023-05-31T07:20:49;21.92;45.95
68648;SHT31;55632;51.962;16.116;2023-05-31T07:25:50;22.05;45.91
68648;SHT31;55632;51.962;16.116;2023-05-31T07:30:51;22.27;45.45
68648;SHT31;55632;51.962;16.116;2023-05-31T07:35:51;22.39;44.72
68648;SHT31;55632;51.962;16.116;2023-05-31T07:40:52;22.51;44.67
68648;SHT31;55632;51.962;16.116;2023-05-31T07:45:53;22.76;44.59
68648;SHT31;55632;51.962;16.116;2023-05-31T07:50:55;22.87;43.82
68648;SHT31;55632;51.962;16.116;2023-05-31T08:01:26;23.27;43.39
68648;SHT31;55632;51.962;16.116;2023-05-31T08:06:27;23.41;43.56
68648;SHT31;55632;51.962;16.116;2023-05-31T08:11:28;23.65;43.12
68648;SHT31;55632;51.962;16.116;2023-05-31T08:16:28;23.76;42.84
68648;SHT31;55632;51.962;16.116;2023-05-31T08:21:29;23.82;41.93
68648;SHT31;55632;51.962;16.116;2023-05-31T08:26:30;23.92;41.64
68648;SHT31;55632;51.962;16.116;2023-05-31T08:31:30;24.05;41.17
68648;SHT31;55632;51.962;16.116;2023-05-31T08:36:31;24.13;40.25
68648;SHT31;55632;51.962;16.116;2023-05-31T08:41:38;24.27;40.54
68648;SHT31;55632;51.962;16.116;2023-05-31T08:46:43;24.40;39.65
68648;SHT31;55632;51.962;16.116;2023-05-31T08:51:47;24.34;39.88
68648;SHT31;55632;51.962;16.116;2023-05-31T08:56:49;24.23;39.51
68648;SHT31;55632;51.962;16.116;2023-05-31T09:01:50;24.21;39.53
68648;SHT31;55632;51.962;16.116;2023-05-31T09:06:53;24.05;39.14
68648;SHT31;55632;51.962;16.116;2023-05-31T09:11:53;24.08;40.37
68648;SHT31;55632;51.962;16.116;2023-05-31T09:16:54;24.21;39.93
68648;SHT31;55632;51.962;16.116;2023-05-31T09:21:55;24.30;39.46
68648;SHT31;55632;51.962;16.116;2023-05-31T09:26:56;24.55;39.22
68648;SHT31;55632;51.962;16.116;2023-05-31T09:32:09;24.76;38.72
68648;SHT31;55632;51.962;16.116;2023-05-31T09:37:21;24.83;38.42
68648;SHT31;55632;51.962;16.116;2023-05-31T09:42:25;24.69;37.99
68648;SHT31;55632;51.962;16.116;2023-05-31T09:47:27;24.75;38.56
68648;SHT31;55632;51.962;16.116;2023-05-31T09:52:28;24.86;38.25
68648;SHT31;55632;51.962;16.116;2023-05-31T09:57:37;25.10;37.84
68648;SHT31;55632;51.962;16.116;2023-05-31T10:02:46;25.21;37.22
68648;SHT31;55632;51.962;16.116;2023-05-31T10:07:51;25.17;36.78
68648;SHT31;55632;51.962;16.116;2023-05-31T10:12:58;25.07;37.21
68648;SHT31;55632;51.962;16.116;2023-05-31T10:18:08;25.10;36.71
68648;SHT31;55632;51.962;16.116;2023-05-31T10:23:22;25.02;36.67
68648;SHT31;55632;51.962;16.116;2023-05-31T10:28:27;25.02;36.89
68648;SHT31;55632;51.962;16.116;2023-05-31T10:33:29;25.07;36.83
68648;SHT31;55632;51.962;16.116;2023-05-31T10:38:52;25.14;36.48
68648;SHT31;55632;51.962;16.116;2023-05-31T10:44:00;25.10;36.06
68648;SHT31;55632;51.962;16.116;2023-05-31T10:49:02;25.17;36.09
68648;SHT31;55632;51.962;16.116;2023-05-31T10:54:06;25.10;35.90
68648;SHT31;55632;51.962;16.116;2023-05-31T10:59:08;25.06;35.56
68648;SHT31;55632;51.962;16.116;2023-05-31T11:04:22;25.19;35.93
68648;SHT31;55632;51.962;16.116;2023-05-31T11:09:25;25.30;36.09
68648;SHT31;55632;51.962;16.116;2023-05-31T11:14:27;25.49;36.80
68648;SHT31;55632;51.962;16.116;2023-05-31T11:19:35;25.65;34.61
68648;SHT31;55632;51.962;16.116;2023-05-31T11:24:38;25.66;33.85
68648;SHT31;55632;51.962;16.116;2023-05-31T11:35:01;25.76;33.23
68648;SHT31;55632;51.962;16.116;2023-05-31T11:40:05;25.85;33.06
68648;SHT31;55632;51.962;16.116;2023-05-31T11:45:14;25.83;32.87
68648;SHT31;55632;51.962;16.116;2023-05-31T11:50:15;25.74;32.46
68648;SHT31;55632;51.962;16.116;2023-05-31T11:55:17;25.76;32.60
68648;SHT31;55632;51.962;16.116;2023-05-31T12:00:18;25.90;31.99
68648;SHT31;55632;51.962;16.116;2023-05-31T12:05:22;25.97;32.96
68648;SHT31;55632;51.962;16.116;2023-05-31T12:10:31;26.12;33.22
68648;SHT31;55632;51.962;16.116;2023-05-31T12:15:32;26.27;32.18
68648;SHT31;55632;51.962;16.116;2023-05-31T12:20:33;26.34;31.52
68648;SHT31;55632;51.962;16.116;2023-05-31T12:25:35;26.31;31.58
68648;SHT31;55632;51.962;16.116;2023-05-31T12:30:47;26.26;30.45
68648;SHT31;55632;51.962;16.116;2023-05-31T12:35:52;26.16;30.93
68648;SHT31;55632;51.962;16.116;2023-05-31T12:40:53;26.17;30.73
68648;SHT31;55632;51.962;16.116;2023-05-31T12:45:54;26.20;30.30
68648;SHT31;55632;51.962;16.116;2023-05-31T12:50:57;26.20;30.21
68648;SHT31;55632;51.962;16.116;2023-05-31T12:55:58;26.14;29.72
68648;SHT31;55632;51.962;16.116;2023-05-31T13:00:59;26.06;29.82
68648;SHT31;55632;51.962;16.116;2023-05-31T13:06:01;26.07;29.52
68648;SHT31;55632;51.962;16.116;2023-05-31T13:11:02;26.12;30.02
68648;SHT31;55632;51.962;16.116;2023-05-31T13:16:03;26.27;29.40
68648;SHT31;55632;51.962;16.116;2023-05-31T13:21:07;26.35;28.92
68648;SHT31;55632;51.962;16.116;2023-05-31T13:26:09;26.28;29.08
68648;SHT31;55632;51.962;16.116;2023-05-31T13:31:10;26.33;28.46
68648;SHT31;55632;51.962;16.116;2023-05-31T13:36:14;26.43;29.21
68648;SHT31;55632;51.962;16.116;2023-05-31T13:41:15;26.59;29.19
68648;SHT31;55632;51.962;16.116;2023-05-31T13:46:16;26.71;28.39
68648;SHT31;55632;51.962;16.116;2023-05-31T13:51:18;26.78;27.04
68648;SHT31;55632;51.962;16.116;2023-05-31T13:56:19;26.69;26.92
68648;SHT31;55632;51.962;16.116;2023-05-31T14:01:23;26.76;26.71
68648;SHT31;55632;51.962;16.116;2023-05-31T14:06:26;26.82;26.67
68648;SHT31;55632;51.962;16.116;2023-05-31T14:11:28;26.75;26.43
68648;SHT31;55632;51.962;16.116;2023-05-31T14:16:29;26.58;26.84
68648;SHT31;55632;51.962;16.116;2023-05-31T14:21:29;26.44;26.98
68648;SHT31;55632;51.962;16.116;2023-05-31T14:26:32;26.12;27.40
68648;SHT31;55632;51.962;16.116;2023-05-31T14:31:35;25.92;28.00
68648;SHT31;55632;51.962;16.116;2023-05-31T14:36:40;25.74;27.44
68648;SHT31;55632;51.962;16.116;2023-05-31T14:41:40;25.59;27.50
68648;SHT31;55632;51.962;16.116;2023-05-31T14:46:44;25.45;28.07
68648;SHT31;55632;51.962;16.116;2023-05-31T14:51:45;25.34;28.70
68648;SHT31;55632;51.962;16.116;2023-05-31T14:56:48;25.30;29.14
68648;SHT31;55632;51.962;16.116;2023-05-31T15:01:49;25.34;29.05
68648;SHT31;55632;51.962;16.116;2023-05-31T15:13:22;25.57;28.77
68648;SHT31;55632;51.962;16.116;2023-05-31T15:18:23;25.64;28.39
68648;SHT31;55632;51.962;16.116;2023-05-31T15:23:24;25.68;28.47
68648;SHT31;55632;51.962;16.116;2023-05-31T15:28:48;25.79;28.24
68648;SHT31;55632;51.962;16.116;2023-05-31T15:33:55;25.92;28.30
68648;SHT31;55632;51.962;16.116;2023-05-31T15:39:00;26.04;28.14
68648;SHT31;55632;51.962;16.116;2023-05-31T15:50:26;25.99;27.86
68648;SHT31;55632;51.962;16.116;2023-05-31T15:55:44;25.92;28.30
68648;SHT31;55632;51.962;16.116;2023-05-31T16:00:47;25.93;28.24
68648;SHT31;55632;51.962;16.116;2023-05-31T16:05:51;25.90;28.35
68648;SHT31;55632;51.962;16.116;2023-05-31T16:10:51;25.93;28.31
68648;SHT31;55632;51.962;16.116;2023-05-31T16:15:52;25.97;28.03
68648;SHT31;55632;51.962;16.116;2023-05-31T16:20:56;25.96;27.78
68648;SHT31;55632;51.962;16.116;2023-05-31T16:25:57;26.00;28.35
68648;SHT31;55632;51.962;16.116;2023-05-31T16:30:58;26.09;28.04
68648;SHT31;55632;51.962;16.116;2023-05-31T16:36:00;26.16;28.43
68648;SHT31;55632;51.962;16.116;2023-05-31T16:41:06;26.10;28.25
68648;SHT31;55632;51.962;16.116;2023-05-31T16:46:12;26.07;28.80
68648;SHT31;55632;51.962;16.116;2023-05-31T16:51:13;26.03;29.43
68648;SHT31;55632;51.962;16.116;2023-05-31T16:56:17;25.92;29.39
68648;SHT31;55632;51.962;16.116;2023-05-31T17:01:22;25.83;29.80
68648;SHT31;55632;51.962;16.116;2023-05-31T17:06:23;25.71;30.35
68648;SHT31;55632;51.962;16.116;2023-05-31T17:11:24;25.57;30.74
68648;SHT31;55632;51.962;16.116;2023-05-31T17:16:29;25.41;31.52
68648;SHT31;55632;51.962;16.116;2023-05-31T17:21:32;25.28;32.25
68648;SHT31;55632;51.962;16.116;2023-05-31T17:26:33;25.16;32.54
68648;SHT31;55632;51.962;16.116;2023-05-31T17:31:37;25.03;33.00
68648;SHT31;55632;51.962;16.116;2023-05-31T17:36:39;24.88;32.91
68648;SHT31;55632;51.962;16.116;2023-05-31T17:41:39;24.73;33.20
68648;SHT31;55632;51.962;16.116;2023-05-31T17:46:44;24.58;33.54
68648;SHT31;55632;51.962;16.116;2023-05-31T17:51:47;24.50;33.89
68648;SHT31;55632;51.962;16.116;2023-05-31T17:56:49;24.38;34.20
68648;SHT31;55632;51.962;16.116;2023-05-31T18:01:53;24.28;34.82
68648;SHT31;55632;51.962;16.116;2023-05-31T18:07:01;24.19;35.07
68648;SHT31;55632;51.962;16.116;2023-05-31T18:12:03;24.08;35.46
68648;SHT31;55632;51.962;16.116;2023-05-31T18:17:05;23.99;35.78
68648;SHT31;55632;51.962;16.116;2023-05-31T18:22:09;23.86;36.09
68648;SHT31;55632;51.962;16.116;2023-05-31T18:27:20;23.65;36.45
68648;SHT31;55632;51.962;16.116;2023-05-31T18:32:21;23.43;36.87
68648;SHT31;55632;51.962;16.116;2023-05-31T18:37:25;23.22;37.80
68648;SHT31;55632;51.962;16.116;2023-05-31T18:42:28;23.00;38.63
68648;SHT31;55632;51.962;16.116;2023-05-31T18:47:29;22.75;39.35
68648;SHT31;55632;51.962;16.116;2023-05-31T18:52:31;22.53;40.47
68648;SHT31;55632;51.962;16.116;2023-05-31T18:57:32;22.23;41.28
68648;SHT31;55632;51.962;16.116;2023-05-31T19:02:33;21.92;41.90
68648;SHT31;55632;51.962;16.116;2023-05-31T19:07:34;21.65;42.89
68648;SHT31;55632;51.962;16.116;2023-05-31T19:12:35;21.33;43.88
68648;SHT31;55632;51.962;16.116;2023-05-31T19:17:36;21.00;44.51
68648;SHT31;55632;51.962;16.116;2023-05-31T19:22:47;20.65;45.17
68648;SHT31;55632;51.962;16.116;2023-05-31T19:27:49;20.34;45.80
68648;SHT31;55632;51.962;16.116;2023-05-31T19:32:52;20.02;46.47
68648;SHT31;55632;51.962;16.116;2023-05-31T19:37:53;19.71;46.98
68648;SHT31;55632;51.962;16.116;2023-05-31T19:42:57;19.43;47.50
68648;SHT31;55632;51.962;16.116;2023-05-31T19:48:01;19.16;47.86
68648;SHT31;55632;51.962;16.116;2023-05-31T19:53:07;18.88;48.40
68648;SHT31;55632;51.962;16.116;2023-05-31T19:58:08;18.59;49.06
68648;SHT31;55632;51.962;16.116;2023-05-31T20:03:09;18.24;50.04
68648;SHT31;55632;51.962;16.116;2023-05-31T20:08:10;17.90;50.74
68648;SHT31;55632;51.962;16.116;2023-05-31T20:13:12;17.65;51.27
68648;SHT31;55632;51.962;16.116;2023-05-31T20:18:15;17.42;51.68
68648;SHT31;55632;51.962;16.116;2023-05-31T20:23:19;17.16;52.00
68648;SHT31;55632;51.962;16.116;2023-05-31T20:28:25;16.94;52.74
68648;SHT31;55632;51.962;16.116;2023-05-31T20:33:26;16.71;53.00
68648;SHT31;55632;51.962;16.116;2023-05-31T20:38:30;16.49;53.18
68648;SHT31;55632;51.962;16.116;2023-05-31T20:43:36;16.26;53.42
68648;SHT31;55632;51.962;16.116;2023-05-31T20:48:39;16.07;53.82
68648;SHT31;55632;51.962;16.116;2023-05-31T20:53:40;15.86;54.22
68648;SHT31;55632;51.962;16.116;2023-05-31T20:58:44;15.63;54.82
68648;SHT31;55632;51.962;16.116;2023-05-31T21:03:45;15.46;55.26
68648;SHT31;55632;51.962;16.116;2023-05-31T21:08:46;15.27;55.62
68648;SHT31;55632;51.962;16.116;2023-05-31T21:13:46;15.10;56.06
68648;SHT31;55632;51.962;16.116;2023-05-31T21:18:48;14.91;56.42
68648;SHT31;55632;51.962;16.116;2023-05-31T21:23:48;14.76;56.66
68648;SHT31;55632;51.962;16.116;2023-05-31T21:28:50;14.56;57.22
68648;SHT31;55632;51.962;16.116;2023-05-31T21:33:50;14.37;57.57
68648;SHT31;55632;51.962;16.116;2023-05-31T21:38:53;14.18;57.70
68648;SHT31;55632;51.962;16.116;2023-05-31T21:43:54;14.01;58.00
68648;SHT31;55632;51.962;16.116;2023-05-31T21:48:56;13.84;58.22
68648;SHT31;55632;51.962;16.116;2023-05-31T21:53:57;13.70;58.47
68648;SHT31;55632;51.962;16.116;2023-05-31T21:58:58;13.55;58.60
68648;SHT31;55632;51.962;16.116;2023-05-31T22:04:02;13.38;59.57
68648;SHT31;55632;51.962;16.116;2023-05-31T22:09:02;13.21;60.17
68648;SHT31;55632;51.962;16.116;2023-05-31T22:14:03;13.07;60.52
68648;SHT31;55632;51.962;16.116;2023-05-31T22:19:04;12.92;61.04
68648;SHT31;55632;51.962;16.116;2023-05-31T22:24:05;12.78;61.42
68648;SHT31;55632;51.962;16.116;2023-05-31T22:29:06;12.62;61.70
68648;SHT31;55632;51.962;16.116;2023-05-31T22:34:06;12.49;61.88
68648;SHT31;55632;51.962;16.116;2023-05-31T22:39:07;12.34;62.14
68648;SHT31;55632;51.962;16.116;2023-05-31T22:44:10;12.28;62.61
68648;SHT31;55632;51.962;16.116;2023-05-31T22:49:14;12.14;63.01
68648;SHT31;55632;51.962;16.116;2023-05-31T22:54:15;11.99;63.47
68648;SHT31;55632;51.962;16.116;2023-05-31T22:59:16;11.87;63.73
68648;SHT31;55632;51.962;16.116;2023-05-31T23:04:17;11.76;63.86
68648;SHT31;55632;51.962;16.116;2023-05-31T23:09:21;11.71;64.03
68648;SHT31;55632;51.962;16.116;2023-05-31T23:14:28;11.59;64.23
68648;SHT31;55632;51.962;16.116;2023-05-31T23:19:29;11.50;64.37
68648;SHT31;55632;51.962;16.116;2023-05-31T23:24:42;11.41;64.94
68648;SHT31;55632;51.962;16.116;2023-05-31T23:29:44;11.27;65.04
68648;SHT31;55632;51.962;16.116;2023-05-31T23:34:47;11.13;65.09
68648;SHT31;55632;51.962;16.116;2023-05-31T23:39:52;11.02;65.13
68648;SHT31;55632;51.962;16.116;2023-05-31T23:44:53;10.91;65.28
68648;SHT31;55632;51.962;16.116;2023-05-31T23:49:54;10.75;65.37
68648;SHT31;55632;51.962;16.116;2023-05-31T23:54:57;10.67;65.78
68648;SHT31;55632;51.962;16.116;2023-05-31T23:59:58;10.53;66.05
